sensor_id;sensor_type;location;lat;lon;timestamp;P1;durP1;ratioP1;P2;durP2;ratioP2
72797;SDS011;61084;55.816;37.036;2023-07-13T00:01:30;3.80;;;1.88;;
72797;SDS011;61084;55.816;37.036;2023-07-13T00:03:56;2.95;;;1.77;;
72797;SDS011;61084;55.816;37.036;2023-07-13T00:06:22;3.88;;;1.98;;
72797;SDS011;61084;55.816;37.036;2023-07-13T00:08:49;4.88;;;2.28;;
72797;SDS011;61084;55.816;37.036;2023-07-13T00:11:15;2.83;;;1.50;;
72797;SDS011;61084;55.816;37.036;2023-07-13T00:13:43;2.40;;;1.70;;
72797;SDS011;61084;55.816;37.036;2023-07-13T00:16:10;3.08;;;1.73;;
72797;SDS011;61084;55.816;37.036;2023-07-13T00:18:37;9.63;;;3.38;;
72797;SDS011;61084;55.816;37.036;2023-07-13T00:21:03;3.22;;;2.03;;
72797;SDS011;61084;55.816;37.036;2023-07-13T00:23:33;3.55;;;1.83;;
72797;SDS011;61084;55.816;37.036;2023-07-13T00:26:04;3.50;;;1.77;;
72797;SDS011;61084;55.816;37.036;2023-07-13T00:28:32;2.13;;;1.65;;
72797;SDS011;61084;55.816;37.036;2023-07-13T00:31:00;4.32;;;1.60;;
72797;SDS011;61084;55.816;37.036;2023-07-13T00:33:27;3.75;;;1.75;;
72797;SDS011;61084;55.816;37.036;2023-07-13T00:35:55;4.75;;;1.80;;
72797;SDS011;61084;55.816;37.036;2023-07-13T00:38:21;2.40;;;1.88;;
72797;SDS011;61084;55.816;37.036;2023-07-13T00:40:47;2.70;;;1.73;;
72797;SDS011;61084;55.816;37.036;2023-07-13T00:43:15;2.55;;;1.73;;
72797;SDS011;61084;55.816;37.036;2023-07-13T00:48:13;4.45;;;2.20;;
72797;SDS011;61084;55.816;37.036;2023-07-13T00:50:43;2.20;;;1.60;;
72797;SDS011;61084;55.816;37.036;2023-07-13T00:53:14;4.57;;;1.92;;
72797;SDS011;61084;55.816;37.036;2023-07-13T00:55:40;2.63;;;1.80;;
72797;SDS011;61084;55.816;37.036;2023-07-13T00:58:06;4.63;;;2.00;;
72797;SDS011;61084;55.816;37.036;2023-07-13T01:03:00;4.82;;;1.77;;
72797;SDS011;61084;55.816;37.036;2023-07-13T01:05:30;3.97;;;1.95;;
72797;SDS011;61084;55.816;37.036;2023-07-13T01:07:59;2.90;;;2.08;;
72797;SDS011;61084;55.816;37.036;2023-07-13T01:10:36;3.83;;;1.58;;
72797;SDS011;61084;55.816;37.036;2023-07-13T01:13:09;3.00;;;1.92;;
72797;SDS011;61084;55.816;37.036;2023-07-13T01:15:37;4.45;;;1.80;;
72797;SDS011;61084;55.816;37.036;2023-07-13T01:18:07;2.83;;;2.00;;
72797;SDS011;61084;55.816;37.036;2023-07-13T01:20:40;3.63;;;1.85;;
72797;SDS011;61084;55.816;37.036;2023-07-13T01:23:08;2.47;;;1.70;;
72797;SDS011;61084;55.816;37.036;2023-07-13T01:25:36;2.85;;;1.70;;
72797;SDS011;61084;55.816;37.036;2023-07-13T01:28:05;6.60;;;1.63;;
72797;SDS011;61084;55.816;37.036;2023-07-13T01:30:32;3.10;;;1.73;;
72797;SDS011;61084;55.816;37.036;2023-07-13T01:33:06;4.55;;;1.77;;
72797;SDS011;61084;55.816;37.036;2023-07-13T01:35:35;3.63;;;1.80;;
72797;SDS011;61084;55.816;37.036;2023-07-13T01:38:02;4.28;;;1.85;;
72797;SDS011;61084;55.816;37.036;2023-07-13T01:40:28;4.38;;;1.83;;
72797;SDS011;61084;55.816;37.036;2023-07-13T01:42:57;3.65;;;1.60;;
72797;SDS011;61084;55.816;37.036;2023-07-13T01:45:24;4.50;;;1.92;;
72797;SDS011;61084;55.816;37.036;2023-07-13T01:47:50;3.38;;;2.10;;
72797;SDS011;61084;55.816;37.036;2023-07-13T01:50:16;4.68;;;1.95;;
72797;SDS011;61084;55.816;37.036;2023-07-13T01:52:42;6.88;;;2.05;;
72797;SDS011;61084;55.816;37.036;2023-07-13T01:55:08;4.85;;;1.70;;
72797;SDS011;61084;55.816;37.036;2023-07-13T01:57:34;4.35;;;2.40;;
72797;SDS011;61084;55.816;37.036;2023-07-13T02:00:02;4.70;;;2.00;;
72797;SDS011;61084;55.816;37.036;2023-07-13T02:02:42;6.03;;;2.20;;
72797;SDS011;61084;55.816;37.036;2023-07-13T02:05:10;4.25;;;1.88;;
72797;SDS011;61084;55.816;37.036;2023-07-13T02:07:37;4.18;;;1.80;;
72797;SDS011;61084;55.816;37.036;2023-07-13T02:10:04;3.50;;;2.03;;
72797;SDS011;61084;55.816;37.036;2023-07-13T02:12:30;3.63;;;1.98;;
72797;SDS011;61084;55.816;37.036;2023-07-13T02:14:56;5.93;;;1.77;;
72797;SDS011;61084;55.816;37.036;2023-07-13T02:17:22;5.10;;;1.80;;
72797;SDS011;61084;55.816;37.036;2023-07-13T02:19:48;5.72;;;1.80;;
72797;SDS011;61084;55.816;37.036;2023-07-13T02:22:14;3.08;;;1.75;;
72797;SDS011;61084;55.816;37.036;2023-07-13T02:24:40;2.35;;;1.95;;
72797;SDS011;61084;55.816;37.036;2023-07-13T02:27:06;3.53;;;1.80;;
72797;SDS011;61084;55.816;37.036;2023-07-13T02:29:32;4.10;;;2.00;;
72797;SDS011;61084;55.816;37.036;2023-07-13T02:31:57;2.08;;;1.67;;
72797;SDS011;61084;55.816;37.036;2023-07-13T02:34:23;2.60;;;1.80;;
72797;SDS011;61084;55.816;37.036;2023-07-13T02:36:49;2.63;;;1.75;;
72797;SDS011;61084;55.816;37.036;2023-07-13T02:39:15;6.05;;;1.75;;
72797;SDS011;61084;55.816;37.036;2023-07-13T02:41:41;4.05;;;1.67;;
72797;SDS011;61084;55.816;37.036;2023-07-13T02:44:07;1.95;;;1.67;;
72797;SDS011;61084;55.816;37.036;2023-07-13T02:46:34;6.18;;;2.03;;
72797;SDS011;61084;55.816;37.036;2023-07-13T02:49:01;3.42;;;1.70;;
72797;SDS011;61084;55.816;37.036;2023-07-13T02:51:28;4.70;;;1.55;;
72797;SDS011;61084;55.816;37.036;2023-07-13T02:53:54;4.95;;;1.63;;
72797;SDS011;61084;55.816;37.036;2023-07-13T02:56:24;4.53;;;1.80;;
72797;SDS011;61084;55.816;37.036;2023-07-13T02:58:51;3.10;;;1.60;;
72797;SDS011;61084;55.816;37.036;2023-07-13T03:01:17;3.17;;;1.80;;
72797;SDS011;61084;55.816;37.036;2023-07-13T03:03:45;4.00;;;1.80;;
72797;SDS011;61084;55.816;37.036;2023-07-13T03:06:12;3.55;;;1.52;;
72797;SDS011;61084;55.816;37.036;2023-07-13T03:08:47;2.85;;;1.85;;
72797;SDS011;61084;55.816;37.036;2023-07-13T03:11:15;2.13;;;1.63;;
72797;SDS011;61084;55.816;37.036;2023-07-13T03:13:46;3.83;;;1.90;;
72797;SDS011;61084;55.816;37.036;2023-07-13T03:16:13;3.83;;;1.70;;
72797;SDS011;61084;55.816;37.036;2023-07-13T03:18:45;4.75;;;2.00;;
72797;SDS011;61084;55.816;37.036;2023-07-13T03:21:12;2.17;;;1.60;;
72797;SDS011;61084;55.816;37.036;2023-07-13T03:26:26;5.80;;;2.00;;
72797;SDS011;61084;55.816;37.036;2023-07-13T03:28:51;3.88;;;2.13;;
72797;SDS011;61084;55.816;37.036;2023-07-13T03:31:25;3.33;;;1.88;;
72797;SDS011;61084;55.816;37.036;2023-07-13T03:33:55;4.13;;;1.85;;
72797;SDS011;61084;55.816;37.036;2023-07-13T03:36:22;6.53;;;2.03;;
72797;SDS011;61084;55.816;37.036;2023-07-13T03:38:57;2.92;;;1.92;;
72797;SDS011;61084;55.816;37.036;2023-07-13T03:41:29;4.85;;;2.13;;
72797;SDS011;61084;55.816;37.036;2023-07-13T03:43:57;2.20;;;1.80;;
72797;SDS011;61084;55.816;37.036;2023-07-13T03:46:25;4.20;;;1.85;;
72797;SDS011;61084;55.816;37.036;2023-07-13T03:48:51;2.83;;;2.03;;
72797;SDS011;61084;55.816;37.036;2023-07-13T03:51:17;3.50;;;1.98;;
72797;SDS011;61084;55.816;37.036;2023-07-13T03:53:44;3.45;;;1.63;;
72797;SDS011;61084;55.816;37.036;2023-07-13T03:56:14;3.80;;;1.88;;
72797;SDS011;61084;55.816;37.036;2023-07-13T03:58:43;3.30;;;1.92;;
72797;SDS011;61084;55.816;37.036;2023-07-13T04:01:16;3.13;;;1.80;;
72797;SDS011;61084;55.816;37.036;2023-07-13T04:03:44;5.35;;;1.98;;
72797;SDS011;61084;55.816;37.036;2023-07-13T04:06:33;4.35;;;2.20;;
72797;SDS011;61084;55.816;37.036;2023-07-13T04:08:59;3.17;;;2.00;;
72797;SDS011;61084;55.816;37.036;2023-07-13T04:11:27;3.50;;;1.95;;
72797;SDS011;61084;55.816;37.036;2023-07-13T04:13:54;3.22;;;1.95;;
72797;SDS011;61084;55.816;37.036;2023-07-13T04:16:21;3.70;;;2.38;;
72797;SDS011;61084;55.816;37.036;2023-07-13T04:18:47;3.17;;;2.03;;
72797;SDS011;61084;55.816;37.036;2023-07-13T04:21:14;3.03;;;2.15;;
72797;SDS011;61084;55.816;37.036;2023-07-13T04:26:06;6.85;;;2.10;;
72797;SDS011;61084;55.816;37.036;2023-07-13T04:30:58;2.55;;;2.03;;
72797;SDS011;61084;55.816;37.036;2023-07-13T04:33:25;3.78;;;2.30;;
72797;SDS011;61084;55.816;37.036;2023-07-13T04:35:52;3.25;;;1.70;;
72797;SDS011;61084;55.816;37.036;2023-07-13T04:38:24;2.78;;;1.83;;
72797;SDS011;61084;55.816;37.036;2023-07-13T04:40:57;2.90;;;1.80;;
72797;SDS011;61084;55.816;37.036;2023-07-13T04:43:24;3.47;;;2.40;;
72797;SDS011;61084;55.816;37.036;2023-07-13T04:45:52;3.00;;;2.00;;
72797;SDS011;61084;55.816;37.036;2023-07-13T04:48:18;6.35;;;2.55;;
72797;SDS011;61084;55.816;37.036;2023-07-13T04:50:45;6.38;;;1.98;;
72797;SDS011;61084;55.816;37.036;2023-07-13T04:53:11;2.63;;;1.83;;
72797;SDS011;61084;55.816;37.036;2023-07-13T04:55:38;2.60;;;1.60;;
72797;SDS011;61084;55.816;37.036;2023-07-13T04:58:04;6.30;;;2.10;;
72797;SDS011;61084;55.816;37.036;2023-07-13T05:00:30;3.70;;;1.80;;
72797;SDS011;61084;55.816;37.036;2023-07-13T05:02:57;6.55;;;1.92;;
72797;SDS011;61084;55.816;37.036;2023-07-13T05:05:24;3.85;;;2.50;;
72797;SDS011;61084;55.816;37.036;2023-07-13T05:07:51;3.28;;;1.88;;
72797;SDS011;61084;55.816;37.036;2023-07-13T05:10:17;3.60;;;1.83;;
72797;SDS011;61084;55.816;37.036;2023-07-13T05:12:44;7.13;;;2.15;;
72797;SDS011;61084;55.816;37.036;2023-07-13T05:15:10;7.00;;;2.10;;
72797;SDS011;61084;55.816;37.036;2023-07-13T05:17:36;5.82;;;2.22;;
72797;SDS011;61084;55.816;37.036;2023-07-13T05:20:05;3.42;;;2.33;;
72797;SDS011;61084;55.816;37.036;2023-07-13T05:22:31;4.18;;;1.75;;
72797;SDS011;61084;55.816;37.036;2023-07-13T05:24:57;2.38;;;1.70;;
72797;SDS011;61084;55.816;37.036;2023-07-13T05:27:23;2.38;;;2.10;;
72797;SDS011;61084;55.816;37.036;2023-07-13T05:29:49;5.07;;;2.55;;
72797;SDS011;61084;55.816;37.036;2023-07-13T05:32:15;9.38;;;2.30;;
72797;SDS011;61084;55.816;37.036;2023-07-13T05:34:42;3.47;;;1.70;;
72797;SDS011;61084;55.816;37.036;2023-07-13T05:37:08;5.65;;;1.92;;
72797;SDS011;61084;55.816;37.036;2023-07-13T05:39:34;5.40;;;2.33;;
72797;SDS011;61084;55.816;37.036;2023-07-13T05:42:01;6.45;;;2.90;;
72797;SDS011;61084;55.816;37.036;2023-07-13T05:44:28;3.90;;;1.83;;
72797;SDS011;61084;55.816;37.036;2023-07-13T05:46:53;5.53;;;1.80;;
72797;SDS011;61084;55.816;37.036;2023-07-13T05:49:22;4.95;;;1.80;;
72797;SDS011;61084;55.816;37.036;2023-07-13T05:51:48;4.35;;;1.60;;
72797;SDS011;61084;55.816;37.036;2023-07-13T05:54:14;3.15;;;2.00;;
72797;SDS011;61084;55.816;37.036;2023-07-13T05:56:40;3.28;;;1.65;;
72797;SDS011;61084;55.816;37.036;2023-07-13T05:59:06;2.42;;;1.75;;
72797;SDS011;61084;55.816;37.036;2023-07-13T06:01:32;2.22;;;1.65;;
72797;SDS011;61084;55.816;37.036;2023-07-13T06:03:58;5.55;;;1.80;;
72797;SDS011;61084;55.816;37.036;2023-07-13T06:06:24;4.82;;;2.65;;
72797;SDS011;61084;55.816;37.036;2023-07-13T06:08:50;3.53;;;1.70;;
72797;SDS011;61084;55.816;37.036;2023-07-13T06:11:16;3.92;;;1.70;;
72797;SDS011;61084;55.816;37.036;2023-07-13T06:13:43;2.53;;;1.50;;
72797;SDS011;61084;55.816;37.036;2023-07-13T06:16:10;2.67;;;1.40;;
72797;SDS011;61084;55.816;37.036;2023-07-13T06:18:38;2.75;;;1.40;;
72797;SDS011;61084;55.816;37.036;2023-07-13T06:21:09;3.20;;;1.23;;
72797;SDS011;61084;55.816;37.036;2023-07-13T06:23:37;2.88;;;1.33;;
72797;SDS011;61084;55.816;37.036;2023-07-13T06:26:04;5.20;;;1.75;;
72797;SDS011;61084;55.816;37.036;2023-07-13T06:28:31;3.13;;;1.67;;
72797;SDS011;61084;55.816;37.036;2023-07-13T06:30:58;4.72;;;1.65;;
72797;SDS011;61084;55.816;37.036;2023-07-13T06:33:25;2.25;;;1.42;;
72797;SDS011;61084;55.816;37.036;2023-07-13T06:35:51;2.17;;;1.60;;
72797;SDS011;61084;55.816;37.036;2023-07-13T06:38:17;2.95;;;1.63;;
72797;SDS011;61084;55.816;37.036;2023-07-13T06:40:43;5.25;;;2.60;;
72797;SDS011;61084;55.816;37.036;2023-07-13T06:43:09;2.85;;;1.60;;
72797;SDS011;61084;55.816;37.036;2023-07-13T06:45:36;3.05;;;1.63;;
72797;SDS011;61084;55.816;37.036;2023-07-13T06:48:07;1.60;;;1.40;;
72797;SDS011;61084;55.816;37.036;2023-07-13T06:50:33;3.83;;;1.65;;
72797;SDS011;61084;55.816;37.036;2023-07-13T06:52:59;4.95;;;1.65;;
72797;SDS011;61084;55.816;37.036;2023-07-13T06:55:26;2.17;;;1.60;;
72797;SDS011;61084;55.816;37.036;2023-07-13T06:57:51;3.63;;;1.88;;
72797;SDS011;61084;55.816;37.036;2023-07-13T07:00:17;3.35;;;1.83;;
72797;SDS011;61084;55.816;37.036;2023-07-13T07:02:44;4.18;;;1.58;;
72797;SDS011;61084;55.816;37.036;2023-07-13T07:05:10;5.55;;;1.95;;
72797;SDS011;61084;55.816;37.036;2023-07-13T07:07:35;5.65;;;1.80;;
72797;SDS011;61084;55.816;37.036;2023-07-13T07:10:02;2.20;;;1.70;;
72797;SDS011;61084;55.816;37.036;2023-07-13T07:12:29;5.93;;;1.77;;
72797;SDS011;61084;55.816;37.036;2023-07-13T07:14:54;8.65;;;1.52;;
72797;SDS011;61084;55.816;37.036;2023-07-13T07:17:21;5.68;;;1.75;;
72797;SDS011;61084;55.816;37.036;2023-07-13T07:19:47;2.63;;;1.80;;
72797;SDS011;61084;55.816;37.036;2023-07-13T07:22:13;3.30;;;1.63;;
72797;SDS011;61084;55.816;37.036;2023-07-13T07:24:38;5.13;;;1.48;;
72797;SDS011;61084;55.816;37.036;2023-07-13T07:27:04;2.22;;;1.58;;
72797;SDS011;61084;55.816;37.036;2023-07-13T07:29:30;2.65;;;1.55;;
72797;SDS011;61084;55.816;37.036;2023-07-13T07:31:56;4.43;;;1.40;;
72797;SDS011;61084;55.816;37.036;2023-07-13T07:34:22;3.13;;;2.17;;
72797;SDS011;61084;55.816;37.036;2023-07-13T07:36:48;2.78;;;1.80;;
72797;SDS011;61084;55.816;37.036;2023-07-13T07:39:14;11.40;;;2.13;;
72797;SDS011;61084;55.816;37.036;2023-07-13T07:41:39;3.90;;;1.60;;
72797;SDS011;61084;55.816;37.036;2023-07-13T07:44:05;3.28;;;1.40;;
72797;SDS011;61084;55.816;37.036;2023-07-13T07:46:33;5.45;;;1.90;;
72797;SDS011;61084;55.816;37.036;2023-07-13T07:48:58;3.25;;;1.52;;
72797;SDS011;61084;55.816;37.036;2023-07-13T07:51:24;2.10;;;1.35;;
72797;SDS011;61084;55.816;37.036;2023-07-13T07:53:50;3.45;;;1.80;;
72797;SDS011;61084;55.816;37.036;2023-07-13T07:56:16;7.03;;;1.60;;
72797;SDS011;61084;55.816;37.036;2023-07-13T07:58:42;4.38;;;1.80;;
72797;SDS011;61084;55.816;37.036;2023-07-13T08:01:08;4.70;;;1.95;;
72797;SDS011;61084;55.816;37.036;2023-07-13T08:03:34;6.90;;;1.55;;
72797;SDS011;61084;55.816;37.036;2023-07-13T08:06:01;4.88;;;1.52;;
72797;SDS011;61084;55.816;37.036;2023-07-13T08:08:27;6.72;;;1.98;;
72797;SDS011;61084;55.816;37.036;2023-07-13T08:10:53;3.13;;;1.73;;
72797;SDS011;61084;55.816;37.036;2023-07-13T08:13:19;5.07;;;1.50;;
72797;SDS011;61084;55.816;37.036;2023-07-13T08:15:46;3.33;;;1.77;;
72797;SDS011;61084;55.816;37.036;2023-07-13T08:18:12;3.50;;;1.60;;
72797;SDS011;61084;55.816;37.036;2023-07-13T08:20:38;4.25;;;1.55;;
72797;SDS011;61084;55.816;37.036;2023-07-13T08:23:05;5.72;;;1.73;;
72797;SDS011;61084;55.816;37.036;2023-07-13T08:25:32;4.45;;;1.90;;
72797;SDS011;61084;55.816;37.036;2023-07-13T08:27:57;5.63;;;2.88;;
72797;SDS011;61084;55.816;37.036;2023-07-13T08:30:23;5.70;;;1.80;;
72797;SDS011;61084;55.816;37.036;2023-07-13T08:32:49;4.20;;;2.15;;
72797;SDS011;61084;55.816;37.036;2023-07-13T08:35:15;3.85;;;1.75;;
72797;SDS011;61084;55.816;37.036;2023-07-13T08:37:42;2.10;;;1.60;;
72797;SDS011;61084;55.816;37.036;2023-07-13T08:40:08;3.60;;;1.83;;
72797;SDS011;61084;55.816;37.036;2023-07-13T08:42:44;6.40;;;2.25;;
72797;SDS011;61084;55.816;37.036;2023-07-13T08:47:52;4.38;;;2.00;;
72797;SDS011;61084;55.816;37.036;2023-07-13T08:50:25;6.30;;;2.13;;
72797;SDS011;61084;55.816;37.036;2023-07-13T08:52:56;9.02;;;2.45;;
72797;SDS011;61084;55.816;37.036;2023-07-13T08:55:31;2.90;;;1.77;;
72797;SDS011;61084;55.816;37.036;2023-07-13T08:58:01;4.43;;;1.80;;
72797;SDS011;61084;55.816;37.036;2023-07-13T09:00:43;4.97;;;2.10;;
72797;SDS011;61084;55.816;37.036;2023-07-13T09:04:15;2.33;;;1.73;;
72797;SDS011;61084;55.816;37.036;2023-07-13T09:06:27;3.30;;;1.90;;
72797;SDS011;61084;55.816;37.036;2023-07-13T09:09:06;1.98;;;1.60;;
72797;SDS011;61084;55.816;37.036;2023-07-13T09:11:54;4.95;;;1.90;;
72797;SDS011;61084;55.816;37.036;2023-07-13T09:16:57;4.15;;;2.20;;
72797;SDS011;61084;55.816;37.036;2023-07-13T09:19:26;5.43;;;2.10;;
72797;SDS011;61084;55.816;37.036;2023-07-13T09:21:55;2.95;;;2.30;;
72797;SDS011;61084;55.816;37.036;2023-07-13T09:26:48;4.80;;;2.72;;
72797;SDS011;61084;55.816;37.036;2023-07-13T09:29:16;3.60;;;1.98;;
72797;SDS011;61084;55.816;37.036;2023-07-13T09:31:52;1.95;;;1.73;;
72797;SDS011;61084;55.816;37.036;2023-07-13T09:34:24;3.60;;;2.05;;
72797;SDS011;61084;55.816;37.036;2023-07-13T09:36:50;6.57;;;2.17;;
72797;SDS011;61084;55.816;37.036;2023-07-13T09:44:28;6.72;;;2.40;;
72797;SDS011;61084;55.816;37.036;2023-07-13T09:47:02;4.03;;;1.90;;
72797;SDS011;61084;55.816;37.036;2023-07-13T09:49:37;5.60;;;2.10;;
72797;SDS011;61084;55.816;37.036;2023-07-13T09:52:04;4.55;;;3.05;;
72797;SDS011;61084;55.816;37.036;2023-07-13T09:54:33;3.13;;;2.58;;
72797;SDS011;61084;55.816;37.036;2023-07-13T09:57:01;6.32;;;2.60;;
72797;SDS011;61084;55.816;37.036;2023-07-13T09:59:29;4.20;;;2.58;;
72797;SDS011;61084;55.816;37.036;2023-07-13T10:02:01;4.22;;;1.77;;
72797;SDS011;61084;55.816;37.036;2023-07-13T10:04:29;7.65;;;2.00;;
72797;SDS011;61084;55.816;37.036;2023-07-13T10:07:12;5.40;;;2.10;;
72797;SDS011;61084;55.816;37.036;2023-07-13T10:09:41;4.72;;;1.95;;
72797;SDS011;61084;55.816;37.036;2023-07-13T10:12:15;7.30;;;2.25;;
72797;SDS011;61084;55.816;37.036;2023-07-13T10:14:43;6.68;;;2.10;;
72797;SDS011;61084;55.816;37.036;2023-07-13T10:17:10;3.70;;;2.20;;
72797;SDS011;61084;55.816;37.036;2023-07-13T10:19:39;4.93;;;2.40;;
72797;SDS011;61084;55.816;37.036;2023-07-13T10:22:24;4.90;;;2.42;;
72797;SDS011;61084;55.816;37.036;2023-07-13T10:24:55;6.18;;;2.20;;
72797;SDS011;61084;55.816;37.036;2023-07-13T10:27:29;5.97;;;2.00;;
72797;SDS011;61084;55.816;37.036;2023-07-13T10:30:21;5.03;;;2.55;;
72797;SDS011;61084;55.816;37.036;2023-07-13T10:32:49;4.82;;;2.00;;
72797;SDS011;61084;55.816;37.036;2023-07-13T10:35:16;5.40;;;2.33;;
72797;SDS011;61084;55.816;37.036;2023-07-13T10:37:53;3.55;;;2.30;;
72797;SDS011;61084;55.816;37.036;2023-07-13T10:40:33;4.72;;;2.08;;
72797;SDS011;61084;55.816;37.036;2023-07-13T10:43:06;7.25;;;2.33;;
72797;SDS011;61084;55.816;37.036;2023-07-13T10:45:49;7.22;;;2.45;;
72797;SDS011;61084;55.816;37.036;2023-07-13T10:48:16;6.07;;;2.20;;
72797;SDS011;61084;55.816;37.036;2023-07-13T10:50:44;4.90;;;2.50;;
72797;SDS011;61084;55.816;37.036;2023-07-13T10:53:20;7.13;;;2.50;;
72797;SDS011;61084;55.816;37.036;2023-07-13T10:58:23;6.88;;;2.80;;
72797;SDS011;61084;55.816;37.036;2023-07-13T11:03:26;4.43;;;2.30;;
72797;SDS011;61084;55.816;37.036;2023-07-13T11:06:39;4.50;;;2.05;;
72797;SDS011;61084;55.816;37.036;2023-07-13T11:21:28;7.40;;;2.38;;
72797;SDS011;61084;55.816;37.036;2023-07-13T11:24:04;4.30;;;2.10;;
72797;SDS011;61084;55.816;37.036;2023-07-13T11:27:11;4.85;;;2.03;;
72797;SDS011;61084;55.816;37.036;2023-07-13T11:29:48;6.25;;;2.60;;
72797;SDS011;61084;55.816;37.036;2023-07-13T11:32:25;10.10;;;2.60;;
72797;SDS011;61084;55.816;37.036;2023-07-13T11:34:56;4.43;;;2.17;;
72797;SDS011;61084;55.816;37.036;2023-07-13T11:37:23;9.55;;;2.60;;
72797;SDS011;61084;55.816;37.036;2023-07-13T11:39:50;4.38;;;2.30;;
72797;SDS011;61084;55.816;37.036;2023-07-13T11:42:18;7.93;;;2.30;;
72797;SDS011;61084;55.816;37.036;2023-07-13T11:44:49;6.63;;;2.63;;
72797;SDS011;61084;55.816;37.036;2023-07-13T11:47:19;5.00;;;2.35;;
72797;SDS011;61084;55.816;37.036;2023-07-13T11:49:49;6.68;;;2.33;;
72797;SDS011;61084;55.816;37.036;2023-07-13T11:52:20;5.88;;;2.72;;
72797;SDS011;61084;55.816;37.036;2023-07-13T11:54:52;3.83;;;2.22;;
72797;SDS011;61084;55.816;37.036;2023-07-13T12:02:16;4.28;;;2.38;;
72797;SDS011;61084;55.816;37.036;2023-07-13T12:04:51;5.65;;;2.40;;
72797;SDS011;61084;55.816;37.036;2023-07-13T12:07:18;4.07;;;2.22;;
72797;SDS011;61084;55.816;37.036;2023-07-13T12:09:44;5.88;;;2.50;;
72797;SDS011;61084;55.816;37.036;2023-07-13T12:14:43;5.43;;;2.40;;
72797;SDS011;61084;55.816;37.036;2023-07-13T12:17:11;4.53;;;2.28;;
72797;SDS011;61084;55.816;37.036;2023-07-13T12:19:41;6.28;;;2.85;;
72797;SDS011;61084;55.816;37.036;2023-07-13T12:22:08;7.78;;;2.42;;
72797;SDS011;61084;55.816;37.036;2023-07-13T12:24:37;7.88;;;2.47;;
72797;SDS011;61084;55.816;37.036;2023-07-13T12:27:05;5.90;;;2.58;;
72797;SDS011;61084;55.816;37.036;2023-07-13T12:31:58;8.43;;;3.70;;
72797;SDS011;61084;55.816;37.036;2023-07-13T12:34:25;6.60;;;3.38;;
72797;SDS011;61084;55.816;37.036;2023-07-13T12:36:56;6.55;;;3.40;;
72797;SDS011;61084;55.816;37.036;2023-07-13T12:39:35;5.22;;;3.80;;
72797;SDS011;61084;55.816;37.036;2023-07-13T12:44:58;6.40;;;3.58;;
72797;SDS011;61084;55.816;37.036;2023-07-13T12:47:31;6.18;;;3.05;;
72797;SDS011;61084;55.816;37.036;2023-07-13T12:50:15;5.35;;;2.50;;
72797;SDS011;61084;55.816;37.036;2023-07-13T12:52:43;5.60;;;2.30;;
72797;SDS011;61084;55.816;37.036;2023-07-13T12:55:14;7.28;;;2.60;;
72797;SDS011;61084;55.816;37.036;2023-07-13T12:57:49;7.55;;;2.47;;
72797;SDS011;61084;55.816;37.036;2023-07-13T13:00:21;4.97;;;2.53;;
72797;SDS011;61084;55.816;37.036;2023-07-13T13:02:58;5.05;;;2.63;;
72797;SDS011;61084;55.816;37.036;2023-07-13T13:05:29;8.82;;;2.65;;
72797;SDS011;61084;55.816;37.036;2023-07-13T13:07:57;5.55;;;2.63;;
72797;SDS011;61084;55.816;37.036;2023-07-13T13:10:23;7.30;;;2.58;;
72797;SDS011;61084;55.816;37.036;2023-07-13T13:12:49;5.55;;;2.60;;
72797;SDS011;61084;55.816;37.036;2023-07-13T13:15:15;6.00;;;2.70;;
72797;SDS011;61084;55.816;37.036;2023-07-13T13:17:42;6.10;;;2.00;;
72797;SDS011;61084;55.816;37.036;2023-07-13T13:20:19;5.07;;;2.28;;
72797;SDS011;61084;55.816;37.036;2023-07-13T13:22:46;10.65;;;2.75;;
72797;SDS011;61084;55.816;37.036;2023-07-13T13:25:13;5.50;;;2.80;;
72797;SDS011;61084;55.816;37.036;2023-07-13T13:27:43;6.43;;;2.60;;
72797;SDS011;61084;55.816;37.036;2023-07-13T13:30:17;5.78;;;2.47;;
72797;SDS011;61084;55.816;37.036;2023-07-13T13:32:44;6.70;;;2.80;;
72797;SDS011;61084;55.816;37.036;2023-07-13T13:35:16;5.47;;;2.92;;
72797;SDS011;61084;55.816;37.036;2023-07-13T13:37:44;7.68;;;3.75;;
72797;SDS011;61084;55.816;37.036;2023-07-13T13:40:19;6.53;;;3.30;;
72797;SDS011;61084;55.816;37.036;2023-07-13T13:42:47;21.42;;;10.75;;
72797;SDS011;61084;55.816;37.036;2023-07-13T13:45:13;27.75;;;14.80;;
72797;SDS011;61084;55.816;37.036;2023-07-13T13:47:39;16.48;;;8.57;;
72797;SDS011;61084;55.816;37.036;2023-07-13T13:50:24;16.15;;;8.43;;
72797;SDS011;61084;55.816;37.036;2023-07-13T13:52:50;16.02;;;6.18;;
72797;SDS011;61084;55.816;37.036;2023-07-13T13:55:19;6.72;;;4.70;;
72797;SDS011;61084;55.816;37.036;2023-07-13T13:57:47;12.02;;;4.63;;
72797;SDS011;61084;55.816;37.036;2023-07-13T14:00:14;10.50;;;4.13;;
72797;SDS011;61084;55.816;37.036;2023-07-13T14:02:46;6.75;;;3.78;;
72797;SDS011;61084;55.816;37.036;2023-07-13T14:05:15;6.63;;;3.40;;
72797;SDS011;61084;55.816;37.036;2023-07-13T14:07:46;7.35;;;3.45;;
72797;SDS011;61084;55.816;37.036;2023-07-13T14:10:13;6.75;;;3.28;;
72797;SDS011;61084;55.816;37.036;2023-07-13T14:12:42;12.63;;;5.13;;
72797;SDS011;61084;55.816;37.036;2023-07-13T14:17:47;13.88;;;6.47;;
72797;SDS011;61084;55.816;37.036;2023-07-13T14:20:17;18.15;;;8.15;;
72797;SDS011;61084;55.816;37.036;2023-07-13T14:22:44;9.70;;;5.25;;
72797;SDS011;61084;55.816;37.036;2023-07-13T14:25:12;10.60;;;4.60;;
72797;SDS011;61084;55.816;37.036;2023-07-13T14:27:38;8.43;;;3.70;;
72797;SDS011;61084;55.816;37.036;2023-07-13T14:30:11;11.75;;;3.60;;
72797;SDS011;61084;55.816;37.036;2023-07-13T14:32:40;8.93;;;3.65;;
72797;SDS011;61084;55.816;37.036;2023-07-13T14:35:07;8.75;;;2.70;;
72797;SDS011;61084;55.816;37.036;2023-07-13T14:37:36;8.13;;;3.60;;
72797;SDS011;61084;55.816;37.036;2023-07-13T14:40:04;6.38;;;3.03;;
72797;SDS011;61084;55.816;37.036;2023-07-13T14:42:37;11.52;;;3.45;;
72797;SDS011;61084;55.816;37.036;2023-07-13T14:45:03;6.18;;;3.13;;
72797;SDS011;61084;55.816;37.036;2023-07-13T14:47:29;8.80;;;3.30;;
72797;SDS011;61084;55.816;37.036;2023-07-13T14:49:55;8.10;;;2.92;;
72797;SDS011;61084;55.816;37.036;2023-07-13T14:52:22;7.60;;;3.40;;
72797;SDS011;61084;55.816;37.036;2023-07-13T14:54:49;7.13;;;3.75;;
72797;SDS011;61084;55.816;37.036;2023-07-13T14:57:16;7.72;;;3.25;;
72797;SDS011;61084;55.816;37.036;2023-07-13T14:59:47;4.82;;;2.63;;
72797;SDS011;61084;55.816;37.036;2023-07-13T15:04:38;2.95;;;2.10;;
72797;SDS011;61084;55.816;37.036;2023-07-13T15:07:04;5.65;;;2.85;;
72797;SDS011;61084;55.816;37.036;2023-07-13T15:09:30;4.80;;;2.47;;
72797;SDS011;61084;55.816;37.036;2023-07-13T15:11:56;4.32;;;2.38;;
72797;SDS011;61084;55.816;37.036;2023-07-13T15:14:23;7.85;;;2.72;;
72797;SDS011;61084;55.816;37.036;2023-07-13T15:16:53;5.82;;;2.70;;
72797;SDS011;61084;55.816;37.036;2023-07-13T15:19:21;3.78;;;2.90;;
72797;SDS011;61084;55.816;37.036;2023-07-13T15:21:49;4.70;;;2.30;;
72797;SDS011;61084;55.816;37.036;2023-07-13T15:24:17;9.18;;;2.30;;
72797;SDS011;61084;55.816;37.036;2023-07-13T15:26:43;5.93;;;2.53;;
72797;SDS011;61084;55.816;37.036;2023-07-13T15:29:15;6.10;;;3.00;;
72797;SDS011;61084;55.816;37.036;2023-07-13T15:31:41;6.82;;;2.75;;
72797;SDS011;61084;55.816;37.036;2023-07-13T15:34:12;6.38;;;2.85;;
72797;SDS011;61084;55.816;37.036;2023-07-13T15:36:39;6.68;;;2.90;;
72797;SDS011;61084;55.816;37.036;2023-07-13T15:39:06;8.00;;;3.00;;
72797;SDS011;61084;55.816;37.036;2023-07-13T15:41:32;6.03;;;2.88;;
72797;SDS011;61084;55.816;37.036;2023-07-13T15:44:00;7.70;;;3.42;;